Anchorage, AK

4:58 PM AKST on February 22, 2017 (GMT -0900)
Government Hill | | Change Station

Elev 94 ft 61.23 °N, 149.89 °W | Updated 7 minutes ago

Overcast
Overcast
20.1 °F
Feels Like 20 °F
N
0.0
Wind Variable Wind from South
Gusts 1.0 mph

Today
High -- | Low -- °F
--% Chance of Precip.
Yesterday
High -- | Low -- °F
Precip. -- in
Pressure 30.43 in
Visibility 10.0 miles
Clouds Scattered Clouds 1500 ft
Overcast 1900 ft
Windchill 20 °F
Dew Point 17 °F
Humidity 88%
Rainfall 0.00 in
Snow Depth Not available.
8:19 AM 6:07 PM
Waning Crescent, 13% visible
METAR PAMR 230153Z 00000KT 10SM SCT015 OVC019 M07/M10 A3041 RMK AO2 SLP302 T10721100 $
Pressure 30.43 in
Visibility 10.0 miles
Clouds Scattered Clouds 1500 ft
Overcast 1900 ft
Windchill 20 °F
Dew Point 17 °F
Humidity 88%
Rainfall 0.00 in
Snow Depth Not available.
8:19 AM 6:07 PM
Waning Crescent, 13% visible
METAR PAMR 230153Z 00000KT 10SM SCT015 OVC019 M07/M10 A3041 RMK AO2 SLP302 T10721100 $

Get Your Daily Forecast Email!

Thanks for signing up!

Be on the lookout for a verification email in your inbox.

You'll start receiving the daily forecast at 8 AM.

×

10-Day Weather Forecast

Almanac

Astronomy

Feb. 22, 2017 Rise Set
Actual Time
Civil Twilight
Nautical Twilight
Astronomical Twilight
Moon
Length of Visible Light
Length of Day
Tomorrow will be .
, % of the Moon is Illuminated

Today's Extremes

State Highs State Lows

Community

WunderPhotos

Upload Photos

1,962,540 photos uploaded!

WunderBlog® & News

Nearby

Air Quality

  Air Quality AQ Index Pollutant
Not available.

Snow Depth

Station Depth Elevation

Earthquake Activity

City Distance Mag. Time & Date
Minimum magnitude displayed is 2.5.

Coastal Water Temperatures

Place Temperature

Stations

Nearby Weather Stations

Station Location Temp. Windchill Dew Point Humidity Wind Precip. Elev Updated Type
                   

Watches & Warnings

There are currently no watches in effect.